Segeza, Russia
Current Conditions -  °F | °C
As of 11:00 PM on Wednesday 28 Jan 2015 (Local Time) from ULPB Reporting Station
Snow Showers Snow Showers  
Wind Chill: 16°   Ceiling: NA
Heat Index: 28°   Visibility: 6mi
Dew Point: 27°   Wind: 18mph
Humidity: 93%   Direction: 220°SW
Pressure: 29.41"   Gusts: NA
Location:  63.75°N, 34.35°E
Report Text: ULPB 282000Z AUTO 22008MPS 9999 -SHSN ////// M02/M03 Q0996
Loading
Personal Weather Stations






























Interactive Weather Map New forecast layout! Learn more

10-Day Weather Forecast

Advertisements
Track Severe Weather on mobile